sensor_id;sensor_type;location;lat;lon;timestamp;P1;durP1;ratioP1;P2;durP2;ratioP2
16254;SDS011;8235;52.198;9.904;2023-02-03T00:01:22;9.17;;;7.20;;
16254;SDS011;8235;52.198;9.904;2023-02-03T00:03:49;10.07;;;7.70;;
16254;SDS011;8235;52.198;9.904;2023-02-03T00:06:17;9.20;;;7.47;;
16254;SDS011;8235;52.198;9.904;2023-02-03T00:08:43;12.60;;;8.43;;
16254;SDS011;8235;52.198;9.904;2023-02-03T00:11:10;11.43;;;8.23;;
16254;SDS011;8235;52.198;9.904;2023-02-03T00:13:37;12.37;;;9.10;;
16254;SDS011;8235;52.198;9.904;2023-02-03T00:16:03;13.37;;;9.17;;
16254;SDS011;8235;52.198;9.904;2023-02-03T00:18:31;14.90;;;10.23;;
16254;SDS011;8235;52.198;9.904;2023-02-03T00:20:59;14.53;;;10.37;;
16254;SDS011;8235;52.198;9.904;2023-02-03T00:23:27;15.17;;;10.23;;
16254;SDS011;8235;52.198;9.904;2023-02-03T00:25:56;17.47;;;11.97;;
16254;SDS011;8235;52.198;9.904;2023-02-03T00:28:22;18.33;;;11.27;;
16254;SDS011;8235;52.198;9.904;2023-02-03T00:30:52;18.33;;;12.20;;
16254;SDS011;8235;52.198;9.904;2023-02-03T00:33:18;15.87;;;11.70;;
16254;SDS011;8235;52.198;9.904;2023-02-03T00:35:45;17.57;;;12.93;;
16254;SDS011;8235;52.198;9.904;2023-02-03T00:38:11;18.53;;;12.80;;
16254;SDS011;8235;52.198;9.904;2023-02-03T00:40:39;18.37;;;12.53;;
16254;SDS011;8235;52.198;9.904;2023-02-03T00:43:05;20.00;;;13.87;;
16254;SDS011;8235;52.198;9.904;2023-02-03T00:45:32;22.73;;;13.47;;
16254;SDS011;8235;52.198;9.904;2023-02-03T00:47:58;21.27;;;14.23;;
16254;SDS011;8235;52.198;9.904;2023-02-03T00:50:25;24.30;;;15.70;;
16254;SDS011;8235;52.198;9.904;2023-02-03T00:52:51;21.53;;;14.73;;
16254;SDS011;8235;52.198;9.904;2023-02-03T00:55:18;22.17;;;15.23;;
16254;SDS011;8235;52.198;9.904;2023-02-03T00:57:46;25.67;;;15.97;;
16254;SDS011;8235;52.198;9.904;2023-02-03T01:00:12;25.87;;;16.63;;
16254;SDS011;8235;52.198;9.904;2023-02-03T01:02:39;24.53;;;15.00;;
16254;SDS011;8235;52.198;9.904;2023-02-03T01:05:06;26.73;;;15.87;;
16254;SDS011;8235;52.198;9.904;2023-02-03T01:07:33;18.17;;;15.07;;
16254;SDS011;8235;52.198;9.904;2023-02-03T01:10:00;22.60;;;15.40;;
16254;SDS011;8235;52.198;9.904;2023-02-03T01:12:27;23.60;;;15.43;;
16254;SDS011;8235;52.198;9.904;2023-02-03T01:14:55;23.97;;;14.83;;
16254;SDS011;8235;52.198;9.904;2023-02-03T01:17:22;19.83;;;14.40;;
16254;SDS011;8235;52.198;9.904;2023-02-03T01:19:49;20.03;;;14.23;;
16254;SDS011;8235;52.198;9.904;2023-02-03T01:22:16;23.57;;;14.50;;
16254;SDS011;8235;52.198;9.904;2023-02-03T01:24:43;19.73;;;13.73;;
16254;SDS011;8235;52.198;9.904;2023-02-03T01:27:10;21.90;;;13.97;;
16254;SDS011;8235;52.198;9.904;2023-02-03T01:29:36;22.00;;;14.23;;
16254;SDS011;8235;52.198;9.904;2023-02-03T01:32:04;17.43;;;13.30;;
16254;SDS011;8235;52.198;9.904;2023-02-03T01:34:30;22.53;;;13.87;;
16254;SDS011;8235;52.198;9.904;2023-02-03T01:36:57;23.57;;;14.03;;
16254;SDS011;8235;52.198;9.904;2023-02-03T01:39:23;17.27;;;13.20;;
16254;SDS011;8235;52.198;9.904;2023-02-03T01:41:53;18.00;;;13.00;;
16254;SDS011;8235;52.198;9.904;2023-02-03T01:47:14;15.43;;;12.50;;
16254;SDS011;8235;52.198;9.904;2023-02-03T01:49:44;17.47;;;12.73;;
16254;SDS011;8235;52.198;9.904;2023-02-03T01:52:15;18.23;;;12.90;;
16254;SDS011;8235;52.198;9.904;2023-02-03T01:54:42;16.90;;;12.30;;
16254;SDS011;8235;52.198;9.904;2023-02-03T01:57:11;15.90;;;11.73;;
16254;SDS011;8235;52.198;9.904;2023-02-03T01:59:41;15.03;;;11.43;;
16254;SDS011;8235;52.198;9.904;2023-02-03T02:02:08;16.87;;;11.67;;
16254;SDS011;8235;52.198;9.904;2023-02-03T02:04:38;17.13;;;11.60;;
16254;SDS011;8235;52.198;9.904;2023-02-03T02:07:15;14.77;;;10.87;;
16254;SDS011;8235;52.198;9.904;2023-02-03T02:09:42;16.50;;;11.40;;
16254;SDS011;8235;52.198;9.904;2023-02-03T02:12:10;13.17;;;10.40;;
16254;SDS011;8235;52.198;9.904;2023-02-03T02:14:37;14.87;;;11.87;;
16254;SDS011;8235;52.198;9.904;2023-02-03T02:17:07;13.20;;;10.70;;
16254;SDS011;8235;52.198;9.904;2023-02-03T02:19:51;15.90;;;9.77;;
16254;SDS011;8235;52.198;9.904;2023-02-03T02:22:33;13.90;;;9.80;;
16254;SDS011;8235;52.198;9.904;2023-02-03T02:25:23;13.37;;;9.40;;
16254;SDS011;8235;52.198;9.904;2023-02-03T02:31:39;12.13;;;9.27;;
16254;SDS011;8235;52.198;9.904;2023-02-03T02:34:13;14.47;;;9.70;;
16254;SDS011;8235;52.198;9.904;2023-02-03T02:36:50;13.97;;;9.57;;
16254;SDS011;8235;52.198;9.904;2023-02-03T02:39:27;13.83;;;9.60;;
16254;SDS011;8235;52.198;9.904;2023-02-03T02:42:00;12.87;;;9.43;;
16254;SDS011;8235;52.198;9.904;2023-02-03T02:44:34;16.37;;;10.87;;
16254;SDS011;8235;52.198;9.904;2023-02-03T02:47:09;12.33;;;9.33;;
16254;SDS011;8235;52.198;9.904;2023-02-03T02:49:38;14.43;;;9.20;;
16254;SDS011;8235;52.198;9.904;2023-02-03T02:52:10;9.90;;;8.87;;
16254;SDS011;8235;52.198;9.904;2023-02-03T02:54:40;13.10;;;8.53;;
16254;SDS011;8235;52.198;9.904;2023-02-03T02:57:10;11.30;;;9.30;;
16254;SDS011;8235;52.198;9.904;2023-02-03T02:59:38;12.40;;;8.83;;
16254;SDS011;8235;52.198;9.904;2023-02-03T03:02:05;11.57;;;9.57;;
16254;SDS011;8235;52.198;9.904;2023-02-03T03:04:33;12.77;;;9.93;;
16254;SDS011;8235;52.198;9.904;2023-02-03T03:07:00;10.37;;;8.53;;
16254;SDS011;8235;52.198;9.904;2023-02-03T03:09:32;12.23;;;8.97;;
16254;SDS011;8235;52.198;9.904;2023-02-03T03:12:04;12.40;;;8.33;;
16254;SDS011;8235;52.198;9.904;2023-02-03T03:14:36;10.30;;;7.30;;
16254;SDS011;8235;52.198;9.904;2023-02-03T03:17:09;13.70;;;8.67;;
16254;SDS011;8235;52.198;9.904;2023-02-03T03:19:42;8.13;;;7.30;;
16254;SDS011;8235;52.198;9.904;2023-02-03T03:22:15;10.80;;;7.17;;
16254;SDS011;8235;52.198;9.904;2023-02-03T03:24:46;11.87;;;7.40;;
16254;SDS011;8235;52.198;9.904;2023-02-03T03:27:17;8.93;;;6.83;;
16254;SDS011;8235;52.198;9.904;2023-02-03T03:29:47;11.63;;;7.00;;
16254;SDS011;8235;52.198;9.904;2023-02-03T03:32:18;10.33;;;7.83;;
16254;SDS011;8235;52.198;9.904;2023-02-03T03:34:46;11.03;;;7.20;;
16254;SDS011;8235;52.198;9.904;2023-02-03T03:37:17;10.80;;;8.00;;
16254;SDS011;8235;52.198;9.904;2023-02-03T03:39:50;10.23;;;6.83;;
16254;SDS011;8235;52.198;9.904;2023-02-03T03:42:22;7.00;;;6.00;;
16254;SDS011;8235;52.198;9.904;2023-02-03T03:44:56;11.17;;;7.43;;
16254;SDS011;8235;52.198;9.904;2023-02-03T03:47:26;9.23;;;6.77;;
16254;SDS011;8235;52.198;9.904;2023-02-03T03:49:59;8.63;;;6.57;;
16254;SDS011;8235;52.198;9.904;2023-02-03T03:52:30;9.20;;;6.73;;
16254;SDS011;8235;52.198;9.904;2023-02-03T03:55:00;7.87;;;7.07;;
16254;SDS011;8235;52.198;9.904;2023-02-03T03:57:31;9.13;;;6.97;;
16254;SDS011;8235;52.198;9.904;2023-02-03T04:00:03;9.73;;;7.13;;
16254;SDS011;8235;52.198;9.904;2023-02-03T04:02:33;9.10;;;7.47;;
16254;SDS011;8235;52.198;9.904;2023-02-03T04:05:05;8.93;;;6.87;;
16254;SDS011;8235;52.198;9.904;2023-02-03T04:07:37;8.63;;;7.07;;
16254;SDS011;8235;52.198;9.904;2023-02-03T04:10:04;8.30;;;6.83;;
16254;SDS011;8235;52.198;9.904;2023-02-03T04:12:47;10.43;;;7.13;;
16254;SDS011;8235;52.198;9.904;2023-02-03T04:15:14;11.33;;;7.50;;
16254;SDS011;8235;52.198;9.904;2023-02-03T04:17:40;9.60;;;7.07;;
16254;SDS011;8235;52.198;9.904;2023-02-03T04:20:09;7.20;;;6.30;;
16254;SDS011;8235;52.198;9.904;2023-02-03T04:22:36;9.50;;;7.03;;
16254;SDS011;8235;52.198;9.904;2023-02-03T04:25:03;9.97;;;7.00;;
16254;SDS011;8235;52.198;9.904;2023-02-03T04:27:30;9.67;;;7.17;;
16254;SDS011;8235;52.198;9.904;2023-02-03T04:29:56;10.63;;;7.07;;
16254;SDS011;8235;52.198;9.904;2023-02-03T04:32:23;9.53;;;6.77;;
16254;SDS011;8235;52.198;9.904;2023-02-03T04:34:49;11.77;;;6.93;;
16254;SDS011;8235;52.198;9.904;2023-02-03T04:37:17;10.73;;;6.63;;
16254;SDS011;8235;52.198;9.904;2023-02-03T04:39:45;9.83;;;7.50;;
16254;SDS011;8235;52.198;9.904;2023-02-03T04:42:11;10.13;;;6.83;;
16254;SDS011;8235;52.198;9.904;2023-02-03T04:44:38;7.47;;;6.77;;
16254;SDS011;8235;52.198;9.904;2023-02-03T04:47:04;9.50;;;6.43;;
16254;SDS011;8235;52.198;9.904;2023-02-03T04:49:30;9.40;;;7.17;;
16254;SDS011;8235;52.198;9.904;2023-02-03T04:51:57;9.00;;;5.27;;
16254;SDS011;8235;52.198;9.904;2023-02-03T04:54:25;8.43;;;6.27;;
16254;SDS011;8235;52.198;9.904;2023-02-03T04:56:51;8.10;;;6.43;;
16254;SDS011;8235;52.198;9.904;2023-02-03T04:59:18;9.27;;;5.30;;
16254;SDS011;8235;52.198;9.904;2023-02-03T05:01:44;7.57;;;5.90;;
16254;SDS011;8235;52.198;9.904;2023-02-03T05:04:11;10.97;;;6.73;;
16254;SDS011;8235;52.198;9.904;2023-02-03T05:06:37;9.67;;;6.73;;
16254;SDS011;8235;52.198;9.904;2023-02-03T05:09:04;8.70;;;5.77;;
16254;SDS011;8235;52.198;9.904;2023-02-03T05:11:32;9.17;;;5.50;;
16254;SDS011;8235;52.198;9.904;2023-02-03T05:13:58;9.83;;;6.27;;
16254;SDS011;8235;52.198;9.904;2023-02-03T05:16:25;9.07;;;5.87;;
16254;SDS011;8235;52.198;9.904;2023-02-03T05:18:51;10.17;;;6.47;;
16254;SDS011;8235;52.198;9.904;2023-02-03T05:21:18;7.13;;;6.33;;
16254;SDS011;8235;52.198;9.904;2023-02-03T05:23:45;9.07;;;6.50;;
16254;SDS011;8235;52.198;9.904;2023-02-03T05:26:11;9.57;;;6.80;;
16254;SDS011;8235;52.198;9.904;2023-02-03T05:28:42;7.97;;;5.80;;
16254;SDS011;8235;52.198;9.904;2023-02-03T05:31:08;10.07;;;6.40;;
16254;SDS011;8235;52.198;9.904;2023-02-03T05:33:35;7.80;;;5.70;;
16254;SDS011;8235;52.198;9.904;2023-02-03T05:36:01;11.37;;;6.60;;
16254;SDS011;8235;52.198;9.904;2023-02-03T05:38:28;8.50;;;5.70;;
16254;SDS011;8235;52.198;9.904;2023-02-03T05:40:54;10.90;;;5.13;;
16254;SDS011;8235;52.198;9.904;2023-02-03T05:43:38;6.47;;;5.27;;
16254;SDS011;8235;52.198;9.904;2023-02-03T05:46:06;7.70;;;5.07;;
16254;SDS011;8235;52.198;9.904;2023-02-03T05:48:33;8.17;;;5.80;;
16254;SDS011;8235;52.198;9.904;2023-02-03T05:50:59;9.77;;;5.13;;
16254;SDS011;8235;52.198;9.904;2023-02-03T05:53:26;8.70;;;4.90;;
16254;SDS011;8235;52.198;9.904;2023-02-03T05:55:53;5.47;;;4.40;;
16254;SDS011;8235;52.198;9.904;2023-02-03T05:58:19;6.50;;;4.57;;
16254;SDS011;8235;52.198;9.904;2023-02-03T06:00:46;6.03;;;4.13;;
16254;SDS011;8235;52.198;9.904;2023-02-03T06:03:14;6.33;;;4.73;;
16254;SDS011;8235;52.198;9.904;2023-02-03T06:05:40;8.40;;;5.07;;
16254;SDS011;8235;52.198;9.904;2023-02-03T06:08:08;10.37;;;4.30;;
16254;SDS011;8235;52.198;9.904;2023-02-03T06:10:35;7.10;;;4.30;;
16254;SDS011;8235;52.198;9.904;2023-02-03T06:13:06;9.67;;;4.10;;
16254;SDS011;8235;52.198;9.904;2023-02-03T06:15:34;7.17;;;4.33;;
16254;SDS011;8235;52.198;9.904;2023-02-03T06:18:00;7.10;;;4.53;;
16254;SDS011;8235;52.198;9.904;2023-02-03T06:20:28;7.30;;;4.20;;
16254;SDS011;8235;52.198;9.904;2023-02-03T06:22:55;10.23;;;4.90;;
16254;SDS011;8235;52.198;9.904;2023-02-03T06:25:21;10.37;;;4.30;;
16254;SDS011;8235;52.198;9.904;2023-02-03T06:27:48;9.77;;;4.80;;
16254;SDS011;8235;52.198;9.904;2023-02-03T06:30:15;4.87;;;3.73;;
16254;SDS011;8235;52.198;9.904;2023-02-03T06:32:42;5.97;;;3.67;;
16254;SDS011;8235;52.198;9.904;2023-02-03T06:35:08;6.63;;;4.00;;
16254;SDS011;8235;52.198;9.904;2023-02-03T06:37:36;7.70;;;4.10;;
16254;SDS011;8235;52.198;9.904;2023-02-03T06:40:03;6.77;;;4.20;;
16254;SDS011;8235;52.198;9.904;2023-02-03T06:42:30;7.80;;;4.27;;
16254;SDS011;8235;52.198;9.904;2023-02-03T06:44:56;7.43;;;4.23;;
16254;SDS011;8235;52.198;9.904;2023-02-03T06:47:23;10.17;;;4.60;;
16254;SDS011;8235;52.198;9.904;2023-02-03T06:49:49;6.77;;;4.03;;
16254;SDS011;8235;52.198;9.904;2023-02-03T06:52:16;6.10;;;4.03;;
16254;SDS011;8235;52.198;9.904;2023-02-03T06:54:44;4.67;;;3.37;;
16254;SDS011;8235;52.198;9.904;2023-02-03T06:57:11;6.03;;;3.10;;
16254;SDS011;8235;52.198;9.904;2023-02-03T06:59:37;4.53;;;3.97;;
16254;SDS011;8235;52.198;9.904;2023-02-03T07:02:04;6.60;;;3.97;;
16254;SDS011;8235;52.198;9.904;2023-02-03T07:04:30;5.20;;;3.57;;
16254;SDS011;8235;52.198;9.904;2023-02-03T07:06:56;5.63;;;3.23;;
16254;SDS011;8235;52.198;9.904;2023-02-03T07:09:23;7.13;;;3.77;;
16254;SDS011;8235;52.198;9.904;2023-02-03T07:11:51;4.30;;;3.33;;
16254;SDS011;8235;52.198;9.904;2023-02-03T07:14:17;5.73;;;3.50;;
16254;SDS011;8235;52.198;9.904;2023-02-03T07:16:44;5.03;;;3.80;;
16254;SDS011;8235;52.198;9.904;2023-02-03T07:19:10;7.53;;;3.87;;
16254;SDS011;8235;52.198;9.904;2023-02-03T07:21:37;4.80;;;3.67;;
16254;SDS011;8235;52.198;9.904;2023-02-03T07:24:03;4.23;;;3.60;;
16254;SDS011;8235;52.198;9.904;2023-02-03T07:26:30;4.37;;;3.67;;
16254;SDS011;8235;52.198;9.904;2023-02-03T07:28:58;6.70;;;4.10;;
16254;SDS011;8235;52.198;9.904;2023-02-03T07:31:25;3.63;;;3.30;;
16254;SDS011;8235;52.198;9.904;2023-02-03T07:33:51;3.80;;;2.97;;
16254;SDS011;8235;52.198;9.904;2023-02-03T07:36:18;5.27;;;3.67;;
16254;SDS011;8235;52.198;9.904;2023-02-03T07:38:44;5.87;;;3.13;;
16254;SDS011;8235;52.198;9.904;2023-02-03T07:41:11;3.93;;;3.03;;
16254;SDS011;8235;52.198;9.904;2023-02-03T07:43:37;6.93;;;3.40;;
16254;SDS011;8235;52.198;9.904;2023-02-03T07:46:05;3.97;;;2.97;;
16254;SDS011;8235;52.198;9.904;2023-02-03T07:48:32;3.93;;;3.30;;
16254;SDS011;8235;52.198;9.904;2023-02-03T07:50:58;5.63;;;2.73;;
16254;SDS011;8235;52.198;9.904;2023-02-03T07:53:25;4.10;;;2.63;;
16254;SDS011;8235;52.198;9.904;2023-02-03T07:55:51;4.23;;;2.37;;
16254;SDS011;8235;52.198;9.904;2023-02-03T07:58:18;3.00;;;2.00;;
16254;SDS011;8235;52.198;9.904;2023-02-03T08:00:44;2.33;;;1.93;;
16254;SDS011;8235;52.198;9.904;2023-02-03T08:03:12;2.80;;;2.10;;
16254;SDS011;8235;52.198;9.904;2023-02-03T08:05:38;1.97;;;1.60;;
16254;SDS011;8235;52.198;9.904;2023-02-03T08:08:05;2.03;;;1.70;;
16254;SDS011;8235;52.198;9.904;2023-02-03T08:10:31;2.00;;;1.70;;
16254;SDS011;8235;52.198;9.904;2023-02-03T08:12:58;2.13;;;1.50;;
16254;SDS011;8235;52.198;9.904;2023-02-03T08:15:27;2.97;;;1.47;;
16254;SDS011;8235;52.198;9.904;2023-02-03T08:17:53;2.13;;;1.93;;
16254;SDS011;8235;52.198;9.904;2023-02-03T08:20:21;2.03;;;1.80;;
16254;SDS011;8235;52.198;9.904;2023-02-03T08:22:48;2.40;;;2.17;;
16254;SDS011;8235;52.198;9.904;2023-02-03T08:25:14;3.00;;;1.80;;
16254;SDS011;8235;52.198;9.904;2023-02-03T08:27:41;4.90;;;2.10;;
16254;SDS011;8235;52.198;9.904;2023-02-03T08:30:09;3.00;;;1.70;;
16254;SDS011;8235;52.198;9.904;2023-02-03T08:32:38;2.20;;;1.97;;
16254;SDS011;8235;52.198;9.904;2023-02-03T08:35:05;2.63;;;1.93;;
16254;SDS011;8235;52.198;9.904;2023-02-03T08:37:33;2.07;;;1.70;;
16254;SDS011;8235;52.198;9.904;2023-02-03T08:40:00;2.07;;;1.53;;
16254;SDS011;8235;52.198;9.904;2023-02-03T08:42:26;1.83;;;1.50;;
16254;SDS011;8235;52.198;9.904;2023-02-03T08:44:53;1.53;;;1.40;;
16254;SDS011;8235;52.198;9.904;2023-02-03T08:47:20;2.27;;;1.90;;
16254;SDS011;8235;52.198;9.904;2023-02-03T08:49:47;3.93;;;2.20;;
16254;SDS011;8235;52.198;9.904;2023-02-03T08:52:13;4.33;;;2.10;;
16254;SDS011;8235;52.198;9.904;2023-02-03T08:54:42;2.57;;;2.30;;
16254;SDS011;8235;52.198;9.904;2023-02-03T08:57:08;3.00;;;2.53;;
16254;SDS011;8235;52.198;9.904;2023-02-03T08:59:36;4.20;;;2.90;;
16254;SDS011;8235;52.198;9.904;2023-02-03T09:02:05;5.10;;;3.00;;
16254;SDS011;8235;52.198;9.904;2023-02-03T09:04:34;4.33;;;2.93;;
16254;SDS011;8235;52.198;9.904;2023-02-03T09:07:01;4.17;;;3.00;;
16254;SDS011;8235;52.198;9.904;2023-02-03T09:09:28;5.37;;;4.17;;
16254;SDS011;8235;52.198;9.904;2023-02-03T09:11:56;5.80;;;3.40;;
16254;SDS011;8235;52.198;9.904;2023-02-03T09:14:26;4.80;;;3.20;;
16254;SDS011;8235;52.198;9.904;2023-02-03T09:16:53;3.70;;;3.20;;
16254;SDS011;8235;52.198;9.904;2023-02-03T09:19:19;7.90;;;3.97;;
16254;SDS011;8235;52.198;9.904;2023-02-03T09:21:46;5.93;;;3.07;;
16254;SDS011;8235;52.198;9.904;2023-02-03T09:24:13;4.57;;;3.37;;
16254;SDS011;8235;52.198;9.904;2023-02-03T09:26:39;7.77;;;3.90;;
16254;SDS011;8235;52.198;9.904;2023-02-03T09:29:07;7.67;;;3.97;;
16254;SDS011;8235;52.198;9.904;2023-02-03T09:31:34;7.17;;;4.10;;
16254;SDS011;8235;52.198;9.904;2023-02-03T09:34:00;6.07;;;3.83;;
16254;SDS011;8235;52.198;9.904;2023-02-03T09:36:27;7.40;;;4.77;;
16254;SDS011;8235;52.198;9.904;2023-02-03T09:38:54;5.67;;;3.70;;
16254;SDS011;8235;52.198;9.904;2023-02-03T09:41:25;5.53;;;3.80;;
16254;SDS011;8235;52.198;9.904;2023-02-03T09:44:09;7.63;;;4.30;;
16254;SDS011;8235;52.198;9.904;2023-02-03T09:46:41;4.67;;;3.70;;
16254;SDS011;8235;52.198;9.904;2023-02-03T09:49:12;4.97;;;3.07;;
16254;SDS011;8235;52.198;9.904;2023-02-03T09:51:43;6.50;;;2.70;;
16254;SDS011;8235;52.198;9.904;2023-02-03T09:54:15;6.53;;;3.47;;
16254;SDS011;8235;52.198;9.904;2023-02-03T09:56:46;6.53;;;2.77;;
16254;SDS011;8235;52.198;9.904;2023-02-03T09:59:17;6.37;;;3.20;;
16254;SDS011;8235;52.198;9.904;2023-02-03T10:01:46;4.23;;;2.93;;
16254;SDS011;8235;52.198;9.904;2023-02-03T10:04:22;4.53;;;1.93;;
16254;SDS011;8235;52.198;9.904;2023-02-03T10:06:57;5.93;;;1.90;;
16254;SDS011;8235;52.198;9.904;2023-02-03T10:09:34;7.70;;;1.80;;
16254;SDS011;8235;52.198;9.904;2023-02-03T10:12:15;4.37;;;1.77;;
16254;SDS011;8235;52.198;9.904;2023-02-03T10:15:05;4.73;;;1.43;;
16254;SDS011;8235;52.198;9.904;2023-02-03T10:17:46;7.57;;;1.97;;
16254;SDS011;8235;52.198;9.904;2023-02-03T10:20:17;3.07;;;1.70;;
16254;SDS011;8235;52.198;9.904;2023-02-03T10:22:49;4.40;;;1.30;;
16254;SDS011;8235;52.198;9.904;2023-02-03T10:25:18;2.90;;;1.10;;
16254;SDS011;8235;52.198;9.904;2023-02-03T10:27:48;3.73;;;1.00;;
16254;SDS011;8235;52.198;9.904;2023-02-03T10:30:19;4.93;;;1.17;;
16254;SDS011;8235;52.198;9.904;2023-02-03T10:32:48;4.10;;;1.00;;
16254;SDS011;8235;52.198;9.904;2023-02-03T10:35:17;1.63;;;0.87;;
16254;SDS011;8235;52.198;9.904;2023-02-03T10:37:46;3.83;;;1.70;;
16254;SDS011;8235;52.198;9.904;2023-02-03T10:40:16;4.77;;;1.23;;
16254;SDS011;8235;52.198;9.904;2023-02-03T10:42:43;4.97;;;1.03;;
16254;SDS011;8235;52.198;9.904;2023-02-03T10:45:32;5.87;;;1.50;;
16254;SDS011;8235;52.198;9.904;2023-02-03T10:48:03;3.83;;;0.83;;
16254;SDS011;8235;52.198;9.904;2023-02-03T10:50:34;3.50;;;1.10;;
16254;SDS011;8235;52.198;9.904;2023-02-03T10:53:18;3.17;;;1.27;;
16254;SDS011;8235;52.198;9.904;2023-02-03T10:55:47;3.67;;;1.20;;
16254;SDS011;8235;52.198;9.904;2023-02-03T10:58:16;4.87;;;1.20;;
16254;SDS011;8235;52.198;9.904;2023-02-03T11:00:50;1.97;;;1.10;;
16254;SDS011;8235;52.198;9.904;2023-02-03T11:03:21;5.07;;;1.00;;
16254;SDS011;8235;52.198;9.904;2023-02-03T11:06:02;2.80;;;1.10;;
16254;SDS011;8235;52.198;9.904;2023-02-03T11:08:30;3.53;;;1.53;;
16254;SDS011;8235;52.198;9.904;2023-02-03T11:11:02;5.23;;;1.17;;
16254;SDS011;8235;52.198;9.904;2023-02-03T11:13:30;2.43;;;1.00;;
16254;SDS011;8235;52.198;9.904;2023-02-03T11:15:59;5.83;;;1.17;;
16254;SDS011;8235;52.198;9.904;2023-02-03T11:18:38;4.00;;;1.33;;
16254;SDS011;8235;52.198;9.904;2023-02-03T11:21:16;4.20;;;1.30;;
16254;SDS011;8235;52.198;9.904;2023-02-03T11:23:50;6.33;;;1.33;;
16254;SDS011;8235;52.198;9.904;2023-02-03T11:26:21;5.47;;;1.40;;
16254;SDS011;8235;52.198;9.904;2023-02-03T11:28:51;6.87;;;1.90;;
16254;SDS011;8235;52.198;9.904;2023-02-03T11:31:22;4.93;;;1.47;;
16254;SDS011;8235;52.198;9.904;2023-02-03T11:33:52;5.30;;;1.30;;
16254;SDS011;8235;52.198;9.904;2023-02-03T11:36:20;7.27;;;2.00;;
16254;SDS011;8235;52.198;9.904;2023-02-03T11:38:47;6.87;;;1.80;;
16254;SDS011;8235;52.198;9.904;2023-02-03T11:41:14;10.07;;;2.23;;
16254;SDS011;8235;52.198;9.904;2023-02-03T11:43:42;7.23;;;1.80;;
16254;SDS011;8235;52.198;9.904;2023-02-03T11:46:10;6.40;;;1.77;;
16254;SDS011;8235;52.198;9.904;2023-02-03T11:48:39;7.30;;;2.03;;
16254;SDS011;8235;52.198;9.904;2023-02-03T11:51:22;7.17;;;1.90;;
16254;SDS011;8235;52.198;9.904;2023-02-03T11:54:10;8.13;;;2.00;;
16254;SDS011;8235;52.198;9.904;2023-02-03T11:56:51;7.27;;;1.73;;
16254;SDS011;8235;52.198;9.904;2023-02-03T11:59:33;12.10;;;2.23;;
16254;SDS011;8235;52.198;9.904;2023-02-03T12:02:33;11.03;;;2.80;;
16254;SDS011;8235;52.198;9.904;2023-02-03T12:05:30;8.80;;;2.63;;
16254;SDS011;8235;52.198;9.904;2023-02-03T12:08:17;8.43;;;2.30;;
16254;SDS011;8235;52.198;9.904;2023-02-03T12:10:54;10.83;;;2.90;;
16254;SDS011;8235;52.198;9.904;2023-02-03T12:13:38;11.50;;;2.33;;
16254;SDS011;8235;52.198;9.904;2023-02-03T12:16:20;11.43;;;2.40;;
16254;SDS011;8235;52.198;9.904;2023-02-03T12:18:59;13.93;;;3.30;;
16254;SDS011;8235;52.198;9.904;2023-02-03T12:21:40;10.87;;;2.30;;
16254;SDS011;8235;52.198;9.904;2023-02-03T12:24:12;14.17;;;3.17;;
16254;SDS011;8235;52.198;9.904;2023-02-03T12:26:49;14.67;;;4.03;;
16254;SDS011;8235;52.198;9.904;2023-02-03T12:29:25;11.20;;;2.60;;
16254;SDS011;8235;52.198;9.904;2023-02-03T12:31:59;12.53;;;3.27;;
16254;SDS011;8235;52.198;9.904;2023-02-03T12:34:32;15.97;;;3.47;;
16254;SDS011;8235;52.198;9.904;2023-02-03T12:37:05;12.90;;;2.90;;
16254;SDS011;8235;52.198;9.904;2023-02-03T12:39:37;10.10;;;2.47;;
16254;SDS011;8235;52.198;9.904;2023-02-03T12:42:11;19.53;;;3.40;;
16254;SDS011;8235;52.198;9.904;2023-02-03T12:44:42;12.77;;;3.37;;
16254;SDS011;8235;52.198;9.904;2023-02-03T12:47:14;21.33;;;9.03;;
16254;SDS011;8235;52.198;9.904;2023-02-03T12:49:49;14.23;;;4.63;;
16254;SDS011;8235;52.198;9.904;2023-02-03T12:52:22;14.50;;;4.20;;
16254;SDS011;8235;52.198;9.904;2023-02-03T12:54:55;10.47;;;2.63;;
16254;SDS011;8235;52.198;9.904;2023-02-03T12:57:29;21.13;;;3.90;;
16254;SDS011;8235;52.198;9.904;2023-02-03T13:00:05;11.97;;;3.43;;
16254;SDS011;8235;52.198;9.904;2023-02-03T13:02:43;14.00;;;3.20;;
16254;SDS011;8235;52.198;9.904;2023-02-03T13:05:23;12.17;;;2.87;;
16254;SDS011;8235;52.198;9.904;2023-02-03T13:07:57;19.17;;;3.60;;
16254;SDS011;8235;52.198;9.904;2023-02-03T13:10:27;14.10;;;3.07;;
16254;SDS011;8235;52.198;9.904;2023-02-03T13:13:00;18.57;;;3.07;;
16254;SDS011;8235;52.198;9.904;2023-02-03T13:15:32;14.67;;;2.70;;
16254;SDS011;8235;52.198;9.904;2023-02-03T13:18:02;11.07;;;2.77;;
16254;SDS011;8235;52.198;9.904;2023-02-03T13:20:34;10.77;;;2.70;;
16254;SDS011;8235;52.198;9.904;2023-02-03T13:23:04;16.50;;;2.47;;
16254;SDS011;8235;52.198;9.904;2023-02-03T13:25:37;10.03;;;2.87;;
16254;SDS011;8235;52.198;9.904;2023-02-03T13:28:15;13.53;;;3.13;;
16254;SDS011;8235;52.198;9.904;2023-02-03T13:31:11;8.43;;;2.20;;
16254;SDS011;8235;52.198;9.904;2023-02-03T13:33:50;11.30;;;2.37;;
16254;SDS011;8235;52.198;9.904;2023-02-03T13:39:41;13.07;;;2.60;;
16254;SDS011;8235;52.198;9.904;2023-02-03T13:42:18;11.17;;;2.87;;
16254;SDS011;8235;52.198;9.904;2023-02-03T13:44:49;10.27;;;3.00;;
16254;SDS011;8235;52.198;9.904;2023-02-03T13:47:20;10.07;;;2.90;;
16254;SDS011;8235;52.198;9.904;2023-02-03T13:49:50;12.00;;;2.53;;
16254;SDS011;8235;52.198;9.904;2023-02-03T13:52:27;10.67;;;2.30;;
16254;SDS011;8235;52.198;9.904;2023-02-03T13:54:59;9.90;;;2.27;;
16254;SDS011;8235;52.198;9.904;2023-02-03T13:57:28;12.93;;;3.60;;
16254;SDS011;8235;52.198;9.904;2023-02-03T13:59:59;11.77;;;2.00;;
16254;SDS011;8235;52.198;9.904;2023-02-03T14:20:49;12.80;;;3.00;;
16254;SDS011;8235;52.198;9.904;2023-02-03T14:23:21;12.93;;;2.67;;
16254;SDS011;8235;52.198;9.904;2023-02-03T14:25:52;14.37;;;3.33;;
16254;SDS011;8235;52.198;9.904;2023-02-03T14:28:24;15.20;;;3.23;;
16254;SDS011;8235;52.198;9.904;2023-02-03T14:31:00;16.47;;;2.93;;
16254;SDS011;8235;52.198;9.904;2023-02-03T14:33:48;13.03;;;2.90;;
16254;SDS011;8235;52.198;9.904;2023-02-03T14:36:29;13.13;;;2.77;;
16254;SDS011;8235;52.198;9.904;2023-02-03T14:39:01;14.53;;;2.43;;
16254;SDS011;8235;52.198;9.904;2023-02-03T14:41:34;11.80;;;2.77;;
16254;SDS011;8235;52.198;9.904;2023-02-03T14:44:17;13.80;;;3.33;;
16254;SDS011;8235;52.198;9.904;2023-02-03T14:46:58;12.53;;;3.10;;
16254;SDS011;8235;52.198;9.904;2023-02-03T14:49:36;9.77;;;3.00;;
16254;SDS011;8235;52.198;9.904;2023-02-03T14:52:32;11.53;;;3.03;;
16254;SDS011;8235;52.198;9.904;2023-02-03T14:55:14;12.90;;;3.13;;
16254;SDS011;8235;52.198;9.904;2023-02-03T14:57:50;9.43;;;2.83;;
16254;SDS011;8235;52.198;9.904;2023-02-03T15:00:27;10.77;;;2.70;;
16254;SDS011;8235;52.198;9.904;2023-02-03T15:05:50;12.93;;;2.23;;
16254;SDS011;8235;52.198;9.904;2023-02-03T15:08:38;14.97;;;2.83;;
16254;SDS011;8235;52.198;9.904;2023-02-03T15:11:14;11.73;;;2.47;;
16254;SDS011;8235;52.198;9.904;2023-02-03T15:13:51;19.27;;;3.53;;
16254;SDS011;8235;52.198;9.904;2023-02-03T15:16:21;8.70;;;3.30;;
16254;SDS011;8235;52.198;9.904;2023-02-03T15:18:52;10.77;;;2.30;;
16254;SDS011;8235;52.198;9.904;2023-02-03T15:21:20;12.13;;;2.73;;
16254;SDS011;8235;52.198;9.904;2023-02-03T15:23:47;21.13;;;3.90;;
16254;SDS011;8235;52.198;9.904;2023-02-03T15:26:16;14.27;;;3.37;;
16254;SDS011;8235;52.198;9.904;2023-02-03T15:28:52;18.30;;;3.33;;
16254;SDS011;8235;52.198;9.904;2023-02-03T15:31:21;8.83;;;2.40;;
16254;SDS011;8235;52.198;9.904;2023-02-03T15:33:55;11.63;;;2.40;;
16254;SDS011;8235;52.198;9.904;2023-02-03T15:36:25;12.83;;;2.43;;
16254;SDS011;8235;52.198;9.904;2023-02-03T15:38:59;8.13;;;2.40;;
16254;SDS011;8235;52.198;9.904;2023-02-03T15:41:34;12.47;;;2.60;;
16254;SDS011;8235;52.198;9.904;2023-02-03T15:44:01;12.47;;;2.07;;